Time;durP1;ratioP1;P1;durP2;ratioP2;P2;SDS_P1;SDS_P2;PMS_P1;PMS_P2;Temp;Humidity;BMP_temperature;BMP_pressure;BME280_temperature;BME280_humidity;BME280_pressure;Samples;Min_cycle;Max_cycle;Signal;HPM_P1;HPM_P2
2021/04/02 00:02:08;;;;;;;10.63;0.70;;;;;;;;;;5010463;28;20181;-58
2021/04/02 00:04:35;;;;;;;0.30;0.20;;;;;;;;;;5007574;28;20224;-57
2021/04/02 00:07:05;;;;;;;15.83;0.30;;;;;;;;;;5009538;28;20852;-57
2021/04/02 00:09:31;;;;;;;4.17;0.67;;;;;;;;;;5008199;28;20192;-57
2021/04/02 00:11:58;;;;;;;0.97;0.93;;;;;;;;;;5009231;28;20200;-57
2021/04/02 00:14:24;;;;;;;3.20;0.67;;;;;;;;;;5006835;28;20313;-58
2021/04/02 00:16:51;;;;;;;1.10;0.57;;;;;;;;;;5004955;28;20218;-57
2021/04/02 00:19:18;;;;;;;1.50;0.33;;;;;;;;;;5006268;28;20189;-58
2021/04/02 00:21:45;;;;;;;0.10;0.10;;;;;;;;;;5009726;28;20181;-58
2021/04/02 00:24:11;;;;;;;0.00;0.00;;;;;;;;;;5005307;28;20660;-58
2021/04/02 00:26:38;;;;;;;0.00;0.00;;;;;;;;;;5012096;28;20208;-57
2021/04/02 00:29:04;;;;;;;0.10;0.10;;;;;;;;;;5008437;28;20246;-58
2021/04/02 00:31:32;;;;;;;0.10;0.10;;;;;;;;;;5008325;28;20200;-57
2021/04/02 00:34:00;;;;;;;0.00;0.00;;;;;;;;;;5007855;28;20284;-58
2021/04/02 00:36:26;;;;;;;0.57;0.57;;;;;;;;;;5009671;28;20181;-57
2021/04/02 00:38:53;;;;;;;0.00;0.00;;;;;;;;;;5022995;28;20203;-57
2021/04/02 00:41:20;;;;;;;1.47;1.47;;;;;;;;;;5008407;28;20968;-57
2021/04/02 00:43:49;;;;;;;0.00;0.00;;;;;;;;;;5006600;28;20189;-57
2021/04/02 00:46:18;;;;;;;0.10;0.10;;;;;;;;;;5010041;28;20208;-56
2021/04/02 00:48:45;;;;;;;0.90;0.90;;;;;;;;;;5011306;28;20177;-57
2021/04/02 00:51:19;;;;;;;8.20;2.33;;;;;;;;;;5012960;28;20185;-58
2021/04/02 00:53:46;;;;;;;4.43;0.50;;;;;;;;;;5007289;28;20229;-57
2021/04/02 00:56:13;;;;;;;0.83;0.47;;;;;;;;;;5011620;28;20985;-57
2021/04/02 00:58:40;;;;;;;0.00;0.00;;;;;;;;;;5008953;28;20188;-57
2021/04/02 01:01:07;;;;;;;2.17;0.30;;;;;;;;;;5007747;28;20180;-57
2021/04/02 01:03:34;;;;;;;0.00;0.00;;;;;;;;;;5010533;28;20185;-57
2021/04/02 01:06:02;;;;;;;0.30;0.20;;;;;;;;;;5008467;28;20322;-57
2021/04/02 01:08:33;;;;;;;0.10;0.10;;;;;;;;;;5010449;28;20187;-57
2021/04/02 01:11:03;;;;;;;0.20;0.20;;;;;;;;;;5012772;28;20195;-57
2021/04/02 01:13:41;;;;;;;0.00;0.00;;;;;;;;;;5013562;28;20183;-57
2021/04/02 01:16:16;;;;;;;1.60;0.50;;;;;;;;;;5008161;28;20184;-58
2021/04/02 01:18:51;;;;;;;0.97;0.87;;;;;;;;;;5010038;28;20950;-58
2021/04/02 01:21:27;;;;;;;0.50;0.50;;;;;;;;;;5009099;28;20748;-57
2021/04/02 01:23:53;;;;;;;0.00;0.00;;;;;;;;;;5009264;28;21054;-58
2021/04/02 01:26:40;;;;;;;0.00;0.00;;;;;;;;;;5009151;28;20919;-58
2021/04/02 01:29:23;;;;;;;0.20;0.20;;;;;;;;;;5004085;28;20303;-58
2021/04/02 01:31:53;;;;;;;1.77;0.83;;;;;;;;;;5007749;28;20435;-57
2021/04/02 01:34:22;;;;;;;0.63;0.63;;;;;;;;;;5010054;28;20184;-57
2021/04/02 01:36:51;;;;;;;1.80;1.03;;;;;;;;;;5010766;28;20197;-57
2021/04/02 01:39:19;;;;;;;0.20;0.20;;;;;;;;;;5011212;28;20205;-57
2021/04/02 01:41:47;;;;;;;0.37;0.20;;;;;;;;;;5011254;28;20218;-57
2021/04/02 01:44:14;;;;;;;5.17;0.50;;;;;;;;;;5010907;28;20846;-58
2021/04/02 01:46:42;;;;;;;0.27;0.23;;;;;;;;;;5010489;28;20216;-58
2021/04/02 01:49:08;;;;;;;0.00;0.00;;;;;;;;;;5009605;28;20762;-58
2021/04/02 01:51:36;;;;;;;0.00;0.00;;;;;;;;;;5007749;28;20180;-57
2021/04/02 01:54:03;;;;;;;6.70;0.53;;;;;;;;;;5006903;28;20283;-57
2021/04/02 01:56:31;;;;;;;0.00;0.00;;;;;;;;;;5007533;28;20176;-58
2021/04/02 01:58:58;;;;;;;0.00;0.00;;;;;;;;;;5005852;28;20219;-58
2021/04/02 02:01:28;;;;;;;1.80;1.70;;;;;;;;;;5009408;28;20185;-57
2021/04/02 02:03:56;;;;;;;4.43;0.63;;;;;;;;;;5009227;28;20195;-57
2021/04/02 02:06:24;;;;;;;0.33;0.33;;;;;;;;;;5010030;28;20231;-57
2021/04/02 02:08:53;;;;;;;0.33;0.33;;;;;;;;;;5010442;28;20212;-58
2021/04/02 02:11:21;;;;;;;4.53;1.50;;;;;;;;;;5010015;28;20654;-57
2021/04/02 02:13:59;;;;;;;0.43;0.30;;;;;;;;;;5013152;28;20274;-57
2021/04/02 02:16:29;;;;;;;3.40;0.60;;;;;;;;;;5016005;28;20470;-57
2021/04/02 02:18:57;;;;;;;3.80;1.07;;;;;;;;;;5013925;28;20817;-57
2021/04/02 02:21:24;;;;;;;2.57;0.63;;;;;;;;;;5013220;28;20748;-57
2021/04/02 02:23:51;;;;;;;0.77;0.23;;;;;;;;;;5015032;28;20690;-57
2021/04/02 02:26:18;;;;;;;0.60;0.60;;;;;;;;;;5015744;28;20204;-57
2021/04/02 02:28:45;;;;;;;0.43;0.33;;;;;;;;;;5012456;28;20241;-58
2021/04/02 02:31:12;;;;;;;0.53;0.43;;;;;;;;;;5014462;28;20698;-57
2021/04/02 02:33:40;;;;;;;0.10;0.10;;;;;;;;;;5013720;28;20181;-57
2021/04/02 02:36:10;;;;;;;0.00;0.00;;;;;;;;;;5045984;28;20176;-57
2021/04/02 02:38:36;;;;;;;0.27;0.27;;;;;;;;;;5012173;28;20283;-57
2021/04/02 02:41:03;;;;;;;0.57;0.57;;;;;;;;;;5014513;28;20188;-57
2021/04/02 02:43:31;;;;;;;0.30;0.30;;;;;;;;;;5012309;28;20993;-57
2021/04/02 02:45:58;;;;;;;0.10;0.10;;;;;;;;;;5013923;28;20753;-58
2021/04/02 02:48:24;;;;;;;1.20;0.53;;;;;;;;;;5011168;28;21060;-56
2021/04/02 02:50:53;;;;;;;0.17;0.17;;;;;;;;;;5012932;28;20176;-57
2021/04/02 02:53:21;;;;;;;3.20;0.83;;;;;;;;;;5012191;28;20185;-57
2021/04/02 02:55:48;;;;;;;0.57;0.53;;;;;;;;;;5013805;28;20186;-57
2021/04/02 02:58:17;;;;;;;0.10;0.10;;;;;;;;;;5013579;28;20197;-57
2021/04/02 03:00:45;;;;;;;0.70;0.70;;;;;;;;;;5013190;28;20400;-57
2021/04/02 03:03:15;;;;;;;0.20;0.20;;;;;;;;;;5011532;28;20214;-58
2021/04/02 03:05:43;;;;;;;1.00;0.80;;;;;;;;;;5012509;28;20335;-57
2021/04/02 03:08:10;;;;;;;0.50;0.50;;;;;;;;;;5013061;28;20211;-57
2021/04/02 03:10:39;;;;;;;2.57;2.37;;;;;;;;;;5011040;28;20182;-58
2021/04/02 03:13:06;;;;;;;0.50;0.50;;;;;;;;;;5012792;28;20204;-58
2021/04/02 03:15:34;;;;;;;0.40;0.40;;;;;;;;;;5011934;28;20176;-57
2021/04/02 03:18:08;;;;;;;0.13;0.13;;;;;;;;;;5010669;28;20915;-58
2021/04/02 03:20:36;;;;;;;0.43;0.43;;;;;;;;;;5012128;28;20184;-57
2021/04/02 03:23:04;;;;;;;1.03;0.57;;;;;;;;;;5011935;28;20739;-57
2021/04/02 03:25:32;;;;;;;0.60;0.60;;;;;;;;;;5011710;28;20212;-58
2021/04/02 03:27:58;;;;;;;1.63;0.60;;;;;;;;;;5012332;28;20756;-57
2021/04/02 03:30:26;;;;;;;3.07;2.23;;;;;;;;;;5010915;28;20195;-57
2021/04/02 03:32:56;;;;;;;3.83;1.33;;;;;;;;;;5010434;28;20818;-58
2021/04/02 03:35:24;;;;;;;0.60;0.57;;;;;;;;;;5011709;28;20180;-57
2021/04/02 03:37:52;;;;;;;0.30;0.30;;;;;;;;;;5009740;28;20222;-57
2021/04/02 03:40:20;;;;;;;0.40;0.40;;;;;;;;;;5011305;28;20250;-57
2021/04/02 03:42:49;;;;;;;7.13;1.47;;;;;;;;;;5009682;28;20818;-58
2021/04/02 03:45:17;;;;;;;0.20;0.20;;;;;;;;;;5010722;28;20188;-57
2021/04/02 03:47:45;;;;;;;0.03;0.03;;;;;;;;;;5009915;28;20195;-58
2021/04/02 03:50:14;;;;;;;0.10;0.10;;;;;;;;;;5012740;28;20889;-58
2021/04/02 03:52:59;;;;;;;0.20;0.20;;;;;;;;;;5009812;28;20234;-57
2021/04/02 03:55:26;;;;;;;0.60;0.60;;;;;;;;;;5010384;28;20212;-57
2021/04/02 03:57:53;;;;;;;0.50;0.50;;;;;;;;;;5012300;28;20184;-57
2021/04/02 04:00:22;;;;;;;2.80;0.97;;;;;;;;;;5010892;28;20191;-56
2021/04/02 04:02:49;;;;;;;0.77;0.77;;;;;;;;;;5010361;28;20189;-57
2021/04/02 04:05:17;;;;;;;0.20;0.20;;;;;;;;;;5007727;28;20288;-57
2021/04/02 04:07:45;;;;;;;0.10;0.10;;;;;;;;;;5010386;28;20184;-58
2021/04/02 04:10:14;;;;;;;13.03;2.33;;;;;;;;;;5012215;28;20834;-57
2021/04/02 04:12:42;;;;;;;5.50;1.47;;;;;;;;;;5012653;28;20587;-57
2021/04/02 04:15:11;;;;;;;1.50;0.83;;;;;;;;;;5010429;28;20188;-57
2021/04/02 04:17:39;;;;;;;0.37;0.37;;;;;;;;;;5012112;28;20263;-57
2021/04/02 04:20:06;;;;;;;0.10;0.10;;;;;;;;;;5012236;28;20212;-57
2021/04/02 04:22:33;;;;;;;6.80;0.80;;;;;;;;;;5012442;28;20184;-57
2021/04/02 04:25:01;;;;;;;0.20;0.20;;;;;;;;;;5010897;28;20295;-57
2021/04/02 04:27:29;;;;;;;0.87;0.20;;;;;;;;;;5013634;28;20215;-57
2021/04/02 04:29:56;;;;;;;0.23;0.23;;;;;;;;;;5013254;28;20195;-57
2021/04/02 04:32:23;;;;;;;0.70;0.37;;;;;;;;;;5013994;28;20654;-57
2021/04/02 04:34:50;;;;;;;1.70;0.43;;;;;;;;;;5012402;28;20180;-57
2021/04/02 04:37:20;;;;;;;0.40;0.40;;;;;;;;;;5011040;28;20185;-57
2021/04/02 04:39:47;;;;;;;0.73;0.57;;;;;;;;;;5011603;28;20196;-57
2021/04/02 04:42:16;;;;;;;1.00;0.40;;;;;;;;;;5011268;28;20212;-57
2021/04/02 04:44:43;;;;;;;2.77;0.90;;;;;;;;;;5010323;28;20195;-57
2021/04/02 04:47:09;;;;;;;0.97;0.80;;;;;;;;;;5008380;28;20211;-57
2021/04/02 04:49:36;;;;;;;0.10;0.10;;;;;;;;;;5012116;28;20197;-57
2021/04/02 04:52:04;;;;;;;3.90;0.83;;;;;;;;;;5010819;28;20212;-57
2021/04/02 04:54:32;;;;;;;2.40;0.47;;;;;;;;;;5011287;28;20997;-57
2021/04/02 04:56:59;;;;;;;2.10;1.20;;;;;;;;;;5010429;28;20173;-57
2021/04/02 04:59:27;;;;;;;0.23;0.23;;;;;;;;;;5009860;28;20185;-57
2021/04/02 05:01:55;;;;;;;0.40;0.40;;;;;;;;;;5008321;28;20184;-57
2021/04/02 05:04:23;;;;;;;0.40;0.30;;;;;;;;;;5006749;28;20244;-57
2021/04/02 05:06:53;;;;;;;6.23;0.73;;;;;;;;;;5007264;28;20250;-57
2021/04/02 05:09:20;;;;;;;1.10;0.43;;;;;;;;;;5011193;28;20188;-57
2021/04/02 05:11:48;;;;;;;0.10;0.10;;;;;;;;;;5009064;28;20975;-57
2021/04/02 05:14:16;;;;;;;1.67;1.37;;;;;;;;;;5007556;28;20184;-57
2021/04/02 05:16:47;;;;;;;0.10;0.10;;;;;;;;;;5012077;28;20195;-57
2021/04/02 05:19:15;;;;;;;4.87;1.93;;;;;;;;;;5011502;28;20215;-57
2021/04/02 05:21:43;;;;;;;0.00;0.00;;;;;;;;;;5009811;28;20239;-57
2021/04/02 05:24:10;;;;;;;0.10;0.10;;;;;;;;;;5010588;28;20188;-57
2021/04/02 05:26:36;;;;;;;1.57;0.67;;;;;;;;;;5008947;28;20577;-57
2021/04/02 05:29:05;;;;;;;0.20;0.20;;;;;;;;;;5009453;28;20310;-57
2021/04/02 05:31:32;;;;;;;0.07;0.07;;;;;;;;;;5009049;28;20561;-57
2021/04/02 05:33:58;;;;;;;7.90;4.67;;;;;;;;;;5006734;28;20215;-57
2021/04/02 05:36:25;;;;;;;0.10;0.10;;;;;;;;;;5008576;28;20227;-57
2021/04/02 05:38:52;;;;;;;0.77;0.77;;;;;;;;;;5025917;28;21001;-57
2021/04/02 05:41:28;;;;;;;0.20;0.20;;;;;;;;;;5010657;28;20192;-57
2021/04/02 05:43:56;;;;;;;0.10;0.10;;;;;;;;;;5010096;28;20191;-57
2021/04/02 05:46:24;;;;;;;7.87;1.27;;;;;;;;;;4998539;28;20205;-57
2021/04/02 05:49:06;;;;;;;0.20;0.20;;;;;;;;;;5009520;28;20183;-57
2021/04/02 05:51:33;;;;;;;0.30;0.30;;;;;;;;;;5009607;28;20207;-57
2021/04/02 05:54:01;;;;;;;0.63;0.30;;;;;;;;;;5000467;28;20191;-57
2021/04/02 05:56:27;;;;;;;0.10;0.10;;;;;;;;;;5000993;28;20219;-57
2021/04/02 05:58:55;;;;;;;0.53;0.33;;;;;;;;;;5003993;28;20185;-57
2021/04/02 06:01:21;;;;;;;0.27;0.13;;;;;;;;;;5009071;28;20196;-57
2021/04/02 06:03:48;;;;;;;0.10;0.10;;;;;;;;;;5004136;28;20235;-57
2021/04/02 06:06:14;;;;;;;0.10;0.10;;;;;;;;;;5004470;28;20307;-57
2021/04/02 06:08:45;;;;;;;0.00;0.00;;;;;;;;;;5004974;28;20819;-57
2021/04/02 06:11:12;;;;;;;1.47;0.50;;;;;;;;;;5011430;28;20178;-57
2021/04/02 06:13:39;;;;;;;0.20;0.20;;;;;;;;;;5017981;28;20184;-58
2021/04/02 06:16:06;;;;;;;2.00;0.70;;;;;;;;;;4999974;28;20193;-57
2021/04/02 06:18:42;;;;;;;0.10;0.10;;;;;;;;;;5012380;28;20192;-57
2021/04/02 06:21:09;;;;;;;0.10;0.10;;;;;;;;;;4999878;28;20204;-57
2021/04/02 06:23:36;;;;;;;0.13;0.13;;;;;;;;;;5000186;28;20199;-57
2021/04/02 06:26:04;;;;;;;5.60;5.10;;;;;;;;;;5004245;28;20261;-57
2021/04/02 06:28:32;;;;;;;0.67;0.30;;;;;;;;;;5003243;28;20185;-57
2021/04/02 06:31:14;;;;;;;0.10;0.10;;;;;;;;;;4999576;28;20180;-57
2021/04/02 06:33:42;;;;;;;0.10;0.10;;;;;;;;;;5001584;28;20730;-57
2021/04/02 06:36:16;;;;;;;0.10;0.10;;;;;;;;;;4998809;28;20275;-57
2021/04/02 06:38:50;;;;;;;0.20;0.20;;;;;;;;;;5012803;28;20198;-57
2021/04/02 06:41:18;;;;;;;0.03;0.03;;;;;;;;;;5003456;28;20250;-57
2021/04/02 06:43:45;;;;;;;0.10;0.10;;;;;;;;;;5017183;28;20210;-57
2021/04/02 06:46:25;;;;;;;0.63;0.63;;;;;;;;;;5000126;28;20208;-57
2021/04/02 06:48:52;;;;;;;0.30;0.30;;;;;;;;;;5006812;28;20274;-57
2021/04/02 06:51:19;;;;;;;0.10;0.10;;;;;;;;;;5004389;28;20317;-57
2021/04/02 06:53:47;;;;;;;0.10;0.10;;;;;;;;;;4996366;28;20185;-57
2021/04/02 06:56:15;;;;;;;0.10;0.10;;;;;;;;;;5002790;28;20617;-57
2021/04/02 06:58:42;;;;;;;0.47;0.47;;;;;;;;;;5001752;28;20208;-57
2021/04/02 07:01:10;;;;;;;0.07;0.07;;;;;;;;;;5008495;28;20212;-57
2021/04/02 07:03:37;;;;;;;0.33;0.33;;;;;;;;;;5001747;28;20216;-57
2021/04/02 07:06:05;;;;;;;0.10;0.10;;;;;;;;;;5002106;28;20244;-57
2021/04/02 07:08:33;;;;;;;0.10;0.10;;;;;;;;;;5010545;28;20554;-57
2021/04/02 07:11:00;;;;;;;0.63;0.30;;;;;;;;;;5001818;28;20200;-57
2021/04/02 07:13:27;;;;;;;5.50;1.50;;;;;;;;;;5044641;28;20645;-57
2021/04/02 07:15:54;;;;;;;0.10;0.10;;;;;;;;;;4999935;28;20196;-57
2021/04/02 07:18:21;;;;;;;0.10;0.10;;;;;;;;;;5002344;28;20287;-57
2021/04/02 07:20:48;;;;;;;0.10;0.10;;;;;;;;;;5006627;28;20200;-57
2021/04/02 07:23:15;;;;;;;0.10;0.10;;;;;;;;;;4998539;28;21153;-57
2021/04/02 07:25:42;;;;;;;1.90;1.23;;;;;;;;;;5004005;28;20220;-58
2021/04/02 07:28:08;;;;;;;0.00;0.00;;;;;;;;;;5000456;28;20751;-57
2021/04/02 07:30:35;;;;;;;0.10;0.10;;;;;;;;;;5012839;28;21075;-57
2021/04/02 07:33:03;;;;;;;0.30;0.30;;;;;;;;;;5003225;28;20180;-57
2021/04/02 07:35:30;;;;;;;0.67;0.30;;;;;;;;;;5003335;28;20188;-57
2021/04/02 07:37:57;;;;;;;1.40;0.63;;;;;;;;;;5012308;28;20188;-57
2021/04/02 07:40:35;;;;;;;2.27;0.77;;;;;;;;;;5000567;28;20173;-57
2021/04/02 07:43:05;;;;;;;0.10;0.10;;;;;;;;;;5004150;28;20538;-57
2021/04/02 07:45:34;;;;;;;0.10;0.10;;;;;;;;;;5001885;28;20254;-57
2021/04/02 07:48:14;;;;;;;0.10;0.10;;;;;;;;;;4999409;28;20192;-57
2021/04/02 07:50:42;;;;;;;16.20;1.17;;;;;;;;;;5007101;28;20222;-57
2021/04/02 07:53:35;;;;;;;0.20;0.20;;;;;;;;;;5002930;28;20728;-57
2021/04/02 07:56:15;;;;;;;0.23;0.23;;;;;;;;;;5004060;28;20200;-57
2021/04/02 07:58:49;;;;;;;0.73;0.73;;;;;;;;;;5000367;28;20283;-57
2021/04/02 08:01:19;;;;;;;0.10;0.10;;;;;;;;;;5004708;28;20290;-57
2021/04/02 08:03:46;;;;;;;1.17;1.17;;;;;;;;;;5005235;28;20658;-58
2021/04/02 08:06:33;;;;;;;1.07;0.73;;;;;;;;;;5003074;28;20579;-58
2021/04/02 08:09:02;;;;;;;1.93;1.23;;;;;;;;;;5007968;28;20195;-57
2021/04/02 08:11:34;;;;;;;0.10;0.10;;;;;;;;;;5002019;28;20192;-57
2021/04/02 08:14:01;;;;;;;0.10;0.10;;;;;;;;;;5001080;28;20216;-58
2021/04/02 08:16:38;;;;;;;1.50;0.60;;;;;;;;;;5001773;28;20250;-57
2021/04/02 08:19:06;;;;;;;1.17;1.07;;;;;;;;;;5000121;28;20192;-57
2021/04/02 08:21:34;;;;;;;0.40;0.40;;;;;;;;;;5002893;28;20250;-57
2021/04/02 08:24:00;;;;;;;1.03;1.00;;;;;;;;;;4997480;28;21020;-58
2021/04/02 08:26:31;;;;;;;0.10;0.10;;;;;;;;;;5008240;28;20242;-58
2021/04/02 08:29:02;;;;;;;0.00;0.00;;;;;;;;;;5001048;28;20673;-58
2021/04/02 08:31:31;;;;;;;0.10;0.10;;;;;;;;;;5002928;28;20711;-58
2021/04/02 08:33:57;;;;;;;0.00;0.00;;;;;;;;;;4996070;28;20568;-57
2021/04/02 08:36:24;;;;;;;0.40;0.10;;;;;;;;;;4996068;28;20191;-58
2021/04/02 08:38:51;;;;;;;1.63;0.70;;;;;;;;;;4999913;28;20195;-57
2021/04/02 08:41:23;;;;;;;2.77;2.67;;;;;;;;;;5004694;28;20199;-57
2021/04/02 08:43:50;;;;;;;0.10;0.10;;;;;;;;;;5014793;28;20198;-57
2021/04/02 08:46:17;;;;;;;1.57;1.43;;;;;;;;;;5009555;28;20210;-57
2021/04/02 08:48:50;;;;;;;0.17;0.17;;;;;;;;;;5002929;28;20194;-57
2021/04/02 08:51:20;;;;;;;0.00;0.00;;;;;;;;;;4998384;28;20195;-58
2021/04/02 08:53:46;;;;;;;0.23;0.23;;;;;;;;;;4996905;28;20277;-58
2021/04/02 08:56:17;;;;;;;0.10;0.10;;;;;;;;;;5000665;28;20330;-58
2021/04/02 08:58:44;;;;;;;0.00;0.00;;;;;;;;;;4996875;28;20198;-58
2021/04/02 09:01:12;;;;;;;0.53;0.53;;;;;;;;;;5004142;28;20212;-58
2021/04/02 09:03:38;;;;;;;0.00;0.00;;;;;;;;;;5003104;28;20865;-58
2021/04/02 09:06:05;;;;;;;2.10;0.40;;;;;;;;;;4999905;28;20239;-57
2021/04/02 09:08:34;;;;;;;0.00;0.00;;;;;;;;;;4998184;28;20191;-58
2021/04/02 09:11:00;;;;;;;0.10;0.10;;;;;;;;;;4998203;28;20184;-58
2021/04/02 09:13:28;;;;;;;0.63;0.63;;;;;;;;;;5004530;28;20351;-58
2021/04/02 09:15:55;;;;;;;0.10;0.10;;;;;;;;;;5004634;28;20686;-58
2021/04/02 09:18:28;;;;;;;0.73;0.57;;;;;;;;;;5001341;28;20191;-58
2021/04/02 09:20:58;;;;;;;0.30;0.30;;;;;;;;;;5004139;28;21023;-57
2021/04/02 09:23:24;;;;;;;0.40;0.40;;;;;;;;;;5006080;28;20982;-58
2021/04/02 09:25:52;;;;;;;0.10;0.10;;;;;;;;;;5009940;28;20204;-57
2021/04/02 09:28:26;;;;;;;0.47;0.37;;;;;;;;;;5013426;28;21041;-58
2021/04/02 09:31:12;;;;;;;0.10;0.10;;;;;;;;;;5004906;28;20187;-58
2021/04/02 09:33:42;;;;;;;0.97;0.97;;;;;;;;;;5003929;28;20181;-57
2021/04/02 14:24:32;;;;;;;10.47;1.10;;;;;;;;;;5050715;28;20584;-61
2021/04/02 14:26:59;;;;;;;1.07;0.60;;;;;;;;;;5026998;28;20188;-60
2021/04/02 14:29:26;;;;;;;5.07;2.37;;;;;;;;;;5033523;28;20195;-61
2021/04/02 14:31:53;;;;;;;28.40;2.93;;;;;;;;;;5033204;28;20175;-61
2021/04/02 14:34:19;;;;;;;0.50;0.50;;;;;;;;;;5033630;28;20179;-61
2021/04/02 14:36:46;;;;;;;0.07;0.07;;;;;;;;;;5035615;28;20269;-61
2021/04/02 14:39:13;;;;;;;1.13;1.03;;;;;;;;;;5034906;28;20238;-60
2021/04/02 14:41:40;;;;;;;1.17;1.07;;;;;;;;;;5029927;28;20684;-60
2021/04/02 14:44:07;;;;;;;3.83;0.47;;;;;;;;;;5038197;28;20207;-60
2021/04/02 14:46:33;;;;;;;0.10;0.10;;;;;;;;;;5039482;28;20180;-60
2021/04/02 14:49:00;;;;;;;1.00;0.63;;;;;;;;;;5040638;28;20317;-59
2021/04/02 14:51:27;;;;;;;1.67;1.03;;;;;;;;;;5033532;28;20740;-59
2021/04/02 14:53:54;;;;;;;1.50;0.93;;;;;;;;;;5036838;28;20657;-59
2021/04/02 14:56:22;;;;;;;5.10;0.53;;;;;;;;;;5037586;28;20192;-59
2021/04/02 14:58:49;;;;;;;0.30;0.30;;;;;;;;;;5039285;28;20187;-59
2021/04/02 15:01:19;;;;;;;7.73;3.20;;;;;;;;;;5032569;28;20180;-60
2021/04/02 15:03:48;;;;;;;8.53;3.57;;;;;;;;;;5029613;28;20400;-59
2021/04/02 15:06:16;;;;;;;0.47;0.20;;;;;;;;;;5037796;28;20184;-58
2021/04/02 15:08:44;;;;;;;0.27;0.27;;;;;;;;;;5036992;28;20188;-58
2021/04/02 15:11:12;;;;;;;0.13;0.13;;;;;;;;;;5038252;28;20176;-59
2021/04/02 15:13:39;;;;;;;0.20;0.20;;;;;;;;;;5028162;28;20182;-59
2021/04/02 15:16:06;;;;;;;4.53;2.67;;;;;;;;;;5034230;28;20269;-59
2021/04/02 15:18:34;;;;;;;0.20;0.20;;;;;;;;;;5033675;28;20195;-59
2021/04/02 15:21:02;;;;;;;5.80;0.97;;;;;;;;;;5033105;28;20200;-59
2021/04/02 15:23:29;;;;;;;0.20;0.20;;;;;;;;;;5035559;28;20291;-58
2021/04/02 15:25:55;;;;;;;1.47;0.87;;;;;;;;;;5034218;28;20176;-58
2021/04/02 15:28:23;;;;;;;0.00;0.00;;;;;;;;;;5034932;28;20657;-58
2021/04/02 15:30:50;;;;;;;1.70;0.40;;;;;;;;;;5033110;28;21031;-59
2021/04/02 15:33:17;;;;;;;2.03;0.70;;;;;;;;;;5032712;28;20207;-58
2021/04/02 15:35:44;;;;;;;4.03;1.30;;;;;;;;;;5022788;28;20176;-59
2021/04/02 15:38:10;;;;;;;0.20;0.10;;;;;;;;;;5020393;28;20239;-59
2021/04/02 15:40:38;;;;;;;4.50;1.03;;;;;;;;;;5018564;28;20548;-58
2021/04/02 15:43:05;;;;;;;10.60;2.17;;;;;;;;;;5017428;28;20297;-58
2021/04/02 15:45:32;;;;;;;0.90;0.87;;;;;;;;;;5020931;28;20211;-58
2021/04/02 15:47:59;;;;;;;1.10;0.97;;;;;;;;;;5020845;28;20180;-58
2021/04/02 15:50:26;;;;;;;2.57;0.40;;;;;;;;;;5024428;28;20184;-58
2021/04/02 15:52:53;;;;;;;0.37;0.33;;;;;;;;;;5019220;28;20184;-59
2021/04/02 15:55:21;;;;;;;0.00;0.00;;;;;;;;;;5017238;28;20184;-58
2021/04/02 15:57:48;;;;;;;1.23;1.13;;;;;;;;;;5018654;28;20192;-59
2021/04/02 16:00:17;;;;;;;0.20;0.20;;;;;;;;;;5017036;28;20186;-59
2021/04/02 16:02:45;;;;;;;2.97;0.70;;;;;;;;;;5021905;28;20192;-59
2021/04/02 16:05:12;;;;;;;6.77;2.03;;;;;;;;;;5023854;28;20193;-58
2021/04/02 16:07:38;;;;;;;0.00;0.00;;;;;;;;;;5020276;28;20176;-59
2021/04/02 16:10:10;;;;;;;1.07;0.33;;;;;;;;;;5015895;28;20273;-58
2021/04/02 16:12:45;;;;;;;4.03;0.60;;;;;;;;;;5019977;28;20188;-58
2021/04/02 16:15:15;;;;;;;2.40;1.27;;;;;;;;;;5022404;28;20334;-58
2021/04/02 16:17:42;;;;;;;0.43;0.17;;;;;;;;;;5022420;28;20239;-58
2021/04/02 16:20:09;;;;;;;0.50;0.50;;;;;;;;;;5020618;28;20189;-59
2021/04/02 16:22:36;;;;;;;1.60;1.50;;;;;;;;;;5011988;28;20228;-58
2021/04/02 16:25:04;;;;;;;0.43;0.40;;;;;;;;;;5016408;28;20185;-59
2021/04/02 16:27:32;;;;;;;1.07;0.47;;;;;;;;;;5015024;28;20255;-59
2021/04/02 16:29:59;;;;;;;4.10;1.70;;;;;;;;;;5015086;28;20526;-59
2021/04/02 16:32:28;;;;;;;5.30;1.03;;;;;;;;;;5018110;28;20203;-59
2021/04/02 16:34:55;;;;;;;4.40;0.97;;;;;;;;;;5018959;28;20787;-58
2021/04/02 16:37:22;;;;;;;2.33;0.73;;;;;;;;;;5016972;28;20219;-59
2021/04/02 16:39:48;;;;;;;0.57;0.37;;;;;;;;;;5019185;28;20306;-59
2021/04/02 16:42:15;;;;;;;1.10;0.93;;;;;;;;;;5015041;28;20251;-58
2021/04/02 16:44:42;;;;;;;0.00;0.00;;;;;;;;;;5017743;28;20739;-59
2021/04/02 16:47:08;;;;;;;1.80;1.03;;;;;;;;;;5015900;28;20227;-59
2021/04/02 16:49:35;;;;;;;1.00;0.80;;;;;;;;;;5015538;28;20201;-59
2021/04/02 16:52:02;;;;;;;5.17;0.97;;;;;;;;;;5014580;28;20624;-58
2021/04/02 16:54:28;;;;;;;0.00;0.00;;;;;;;;;;5012920;28;20221;-58
2021/04/02 16:56:55;;;;;;;2.30;1.03;;;;;;;;;;5015591;28;20208;-58
2021/04/02 16:59:21;;;;;;;1.37;0.47;;;;;;;;;;5015646;28;20218;-58
2021/04/02 17:01:48;;;;;;;1.50;0.97;;;;;;;;;;5013343;28;20180;-58
2021/04/02 17:04:17;;;;;;;0.20;0.20;;;;;;;;;;5012946;28;20201;-58
2021/04/02 17:06:43;;;;;;;0.97;0.43;;;;;;;;;;5017498;28;20310;-59
2021/04/02 17:09:11;;;;;;;3.10;0.83;;;;;;;;;;5014713;28;20197;-58
2021/04/02 17:11:38;;;;;;;0.10;0.10;;;;;;;;;;5016586;28;20273;-58
2021/04/02 17:14:05;;;;;;;0.20;0.20;;;;;;;;;;5020079;28;20660;-59
2021/04/02 17:16:32;;;;;;;3.10;0.57;;;;;;;;;;5014503;28;20188;-58
2021/04/02 17:18:58;;;;;;;2.37;0.93;;;;;;;;;;5010371;28;20228;-59
2021/04/02 17:21:25;;;;;;;0.00;0.00;;;;;;;;;;5011408;28;20215;-59
2021/04/02 17:23:52;;;;;;;4.20;2.17;;;;;;;;;;5016358;28;20228;-59
2021/04/02 17:26:19;;;;;;;0.73;0.53;;;;;;;;;;5013342;28;20208;-58
2021/04/02 17:28:45;;;;;;;0.50;0.50;;;;;;;;;;5016306;28;20239;-59
2021/04/02 17:31:12;;;;;;;0.47;0.47;;;;;;;;;;5015579;28;20268;-59
2021/04/02 17:33:38;;;;;;;2.23;1.00;;;;;;;;;;5013648;28;20184;-59
2021/04/02 17:36:05;;;;;;;1.67;0.67;;;;;;;;;;5016206;28;20275;-59
2021/04/02 17:38:33;;;;;;;0.00;0.00;;;;;;;;;;5018127;28;20242;-59
2021/04/02 17:40:59;;;;;;;7.20;1.93;;;;;;;;;;5014717;28;20234;-58
2021/04/02 17:43:26;;;;;;;0.00;0.00;;;;;;;;;;5017225;28;20731;-59
2021/04/02 17:45:53;;;;;;;0.00;0.00;;;;;;;;;;5012342;28;20695;-59
2021/04/02 17:48:19;;;;;;;1.40;0.63;;;;;;;;;;5013057;28;20182;-58
2021/04/02 17:50:46;;;;;;;3.80;1.23;;;;;;;;;;5015204;28;20188;-59
2021/04/02 17:53:13;;;;;;;0.90;0.57;;;;;;;;;;5017374;28;20693;-59
2021/04/02 17:55:40;;;;;;;0.33;0.33;;;;;;;;;;5013742;28;20242;-60
2021/04/02 17:58:06;;;;;;;3.60;0.77;;;;;;;;;;5013271;28;20190;-59
2021/04/02 18:00:34;;;;;;;7.63;1.07;;;;;;;;;;5012566;28;20229;-59
2021/04/02 18:03:00;;;;;;;0.67;0.30;;;;;;;;;;5012967;28;21087;-59
2021/04/02 18:05:28;;;;;;;1.27;0.40;;;;;;;;;;5015215;28;20188;-59
2021/04/02 18:07:56;;;;;;;0.73;0.30;;;;;;;;;;5017139;28;20203;-59
2021/04/02 18:10:24;;;;;;;11.53;1.30;;;;;;;;;;5013668;28;20193;-59
2021/04/02 18:12:51;;;;;;;8.33;1.07;;;;;;;;;;5015011;28;20196;-59
2021/04/02 18:15:19;;;;;;;2.10;0.60;;;;;;;;;;5016690;28;20251;-59
2021/04/02 18:17:46;;;;;;;0.50;0.23;;;;;;;;;;5009953;28;20275;-59
2021/04/02 18:20:13;;;;;;;1.27;0.47;;;;;;;;;;5012431;28;20195;-59
2021/04/02 18:22:40;;;;;;;3.10;0.83;;;;;;;;;;5009639;28;20319;-59
2021/04/02 18:25:07;;;;;;;1.20;0.83;;;;;;;;;;5010211;28;20256;-59
2021/04/02 18:27:33;;;;;;;3.13;1.17;;;;;;;;;;5010354;28;20219;-60
2021/04/02 18:30:00;;;;;;;8.20;2.07;;;;;;;;;;5006330;28;20696;-60
2021/04/02 18:32:27;;;;;;;3.80;0.47;;;;;;;;;;5010762;28;20219;-59
2021/04/02 18:34:54;;;;;;;0.20;0.10;;;;;;;;;;5016412;28;20204;-59
2021/04/02 18:37:20;;;;;;;1.97;0.90;;;;;;;;;;5013217;28;20183;-60
2021/04/02 18:39:47;;;;;;;6.57;2.00;;;;;;;;;;5014037;28;20278;-60
2021/04/02 18:42:15;;;;;;;2.20;1.13;;;;;;;;;;5007680;28;20657;-61
2021/04/02 18:44:42;;;;;;;0.77;0.20;;;;;;;;;;5014081;28;20290;-59
2021/04/02 18:47:08;;;;;;;4.73;1.20;;;;;;;;;;5008198;28;20195;-60
2021/04/02 18:49:35;;;;;;;2.20;1.50;;;;;;;;;;5015184;28;20189;-61
2021/04/02 18:52:02;;;;;;;7.00;0.53;;;;;;;;;;5006518;28;20192;-61
2021/04/02 18:54:29;;;;;;;5.70;1.63;;;;;;;;;;5008567;28;20189;-60
2021/04/02 18:56:56;;;;;;;0.77;0.67;;;;;;;;;;5010302;28;20196;-63
2021/04/02 18:59:23;;;;;;;1.10;0.63;;;;;;;;;;5014373;28;20575;-63
2021/04/02 19:01:50;;;;;;;0.27;0.27;;;;;;;;;;5007064;28;20207;-63
2021/04/02 19:04:16;;;;;;;1.40;0.43;;;;;;;;;;5013270;28;21085;-62
2021/04/02 19:06:43;;;;;;;0.10;0.10;;;;;;;;;;5014525;28;20219;-62
2021/04/02 19:09:10;;;;;;;3.17;1.10;;;;;;;;;;5003944;28;20191;-64
2021/04/02 19:11:37;;;;;;;2.43;1.50;;;;;;;;;;5019139;28;20192;-65
2021/04/02 19:14:05;;;;;;;2.47;0.93;;;;;;;;;;5011026;28;20184;-63
2021/04/02 19:16:32;;;;;;;0.43;0.30;;;;;;;;;;5016630;28;20212;-63
2021/04/02 19:18:59;;;;;;;2.53;0.47;;;;;;;;;;5010634;28;20189;-63
2021/04/02 19:21:25;;;;;;;2.63;2.00;;;;;;;;;;5011078;28;20638;-63
2021/04/02 19:23:54;;;;;;;1.10;0.43;;;;;;;;;;5011229;28;20313;-62
2021/04/02 19:26:20;;;;;;;0.03;0.03;;;;;;;;;;5015504;28;20193;-62
2021/04/02 19:28:47;;;;;;;4.27;1.13;;;;;;;;;;5011051;28;20291;-63
2021/04/02 19:31:14;;;;;;;4.23;0.30;;;;;;;;;;5006963;28;20192;-62
2021/04/02 19:33:41;;;;;;;2.00;0.83;;;;;;;;;;5010208;28;20201;-62
2021/04/02 19:36:09;;;;;;;1.40;1.23;;;;;;;;;;5009907;28;20188;-63
2021/04/02 19:38:36;;;;;;;0.20;0.20;;;;;;;;;;5016077;28;20191;-62